createdAt,value
2023-03-01T00:01:53.286Z,19.30
2023-03-01T00:04:21.950Z,18.77
2023-03-01T00:06:50.810Z,19.13
2023-03-01T00:09:19.721Z,17.70
2023-03-01T00:11:48.671Z,14.85
2023-03-01T00:14:20.581Z,14.10
2023-03-01T00:16:49.555Z,14.07
2023-03-01T00:19:20.914Z,13.98
2023-03-01T00:21:50.398Z,14.10
2023-03-01T00:24:19.008Z,11.55
2023-03-01T00:26:48.424Z,12.55
2023-03-01T00:29:17.029Z,10.48
2023-03-01T00:31:45.759Z,12.13
2023-03-01T00:34:14.339Z,11.85
2023-03-01T00:36:43.298Z,13.70
2023-03-01T00:39:17.331Z,14.77
2023-03-01T00:41:46.471Z,15.38
2023-03-01T00:44:15.060Z,14.15
2023-03-01T00:46:43.847Z,13.88
2023-03-01T00:49:12.620Z,15.85
2023-03-01T00:51:43.259Z,18.27
2023-03-01T00:54:12.387Z,18.00
2023-03-01T00:56:40.991Z,17.98
2023-03-01T00:59:09.765Z,17.92
2023-03-01T01:01:38.678Z,20.15
2023-03-01T01:04:11.050Z,19.58
2023-03-01T01:06:46.375Z,17.45
2023-03-01T01:09:21.129Z,15.13
2023-03-01T01:11:53.290Z,17.73
2023-03-01T01:14:23.524Z,17.55
2023-03-01T01:16:53.046Z,20.05
2023-03-01T01:19:23.383Z,20.15
2023-03-01T01:21:52.968Z,19.10
2023-03-01T01:24:22.024Z,18.52
2023-03-01T01:26:51.972Z,17.02
2023-03-01T01:29:21.370Z,16.98
2023-03-01T01:31:51.285Z,16.67
2023-03-01T01:34:22.901Z,16.65
2023-03-01T01:36:56.001Z,16.73
2023-03-01T01:39:25.907Z,16.95
2023-03-01T01:41:54.836Z,15.70
2023-03-01T01:44:27.340Z,14.55
2023-03-01T01:47:03.986Z,13.65
2023-03-01T01:49:36.140Z,19.98
2023-03-01T01:52:12.796Z,37.78
2023-03-01T01:54:51.819Z,17.73
2023-03-01T01:57:26.391Z,17.38
2023-03-01T02:00:02.489Z,12.60
2023-03-01T02:02:45.174Z,19.35
2023-03-01T02:07:49.013Z,14.63
2023-03-01T02:10:23.820Z,15.13
2023-03-01T02:12:54.431Z,14.52
2023-03-01T02:15:24.086Z,13.13
2023-03-01T02:17:54.159Z,13.00
2023-03-01T02:20:42.895Z,13.38
2023-03-01T02:23:11.949Z,13.68
2023-03-01T02:25:55.732Z,14.55
2023-03-01T02:28:46.182Z,17.73
2023-03-01T02:31:37.984Z,16.13
2023-03-01T02:34:08.714Z,16.77
2023-03-01T02:36:47.924Z,14.35
2023-03-01T02:39:23.288Z,17.05
2023-03-01T02:41:55.536Z,13.05
2023-03-01T02:46:58.377Z,13.65
2023-03-01T02:49:34.088Z,14.65
2023-03-01T02:52:41.222Z,14.10
2023-03-01T02:55:14.815Z,13.82
2023-03-01T02:57:46.325Z,14.73
2023-03-01T03:00:23.710Z,13.87
2023-03-01T03:02:54.484Z,13.43
2023-03-01T03:05:30.432Z,14.20
2023-03-01T03:08:02.168Z,13.32
2023-03-01T03:10:41.333Z,15.07
2023-03-01T03:13:13.673Z,12.75
2023-03-01T03:15:45.101Z,13.10
2023-03-01T03:18:17.603Z,14.50
2023-03-01T03:20:47.442Z,14.05
2023-03-01T03:23:16.250Z,12.10
2023-03-01T03:25:45.191Z,12.02
2023-03-01T03:28:13.720Z,13.40
2023-03-01T03:30:43.696Z,12.02
2023-03-01T03:33:14.120Z,13.13
2023-03-01T03:35:49.509Z,14.68
2023-03-01T03:38:21.628Z,11.77
2023-03-01T03:40:53.060Z,12.38
2023-03-01T03:43:24.823Z,11.32
2023-03-01T03:45:54.147Z,11.20
2023-03-01T03:48:23.051Z,11.50
2023-03-01T03:50:55.713Z,11.48
2023-03-01T03:55:53.654Z,10.57
2023-03-01T03:58:24.489Z,10.98
2023-03-01T04:00:59.095Z,10.10
2023-03-01T04:03:29.669Z,11.70
2023-03-01T04:06:00.972Z,11.93
2023-03-01T04:08:30.696Z,9.25
2023-03-01T04:11:22.927Z,10.20
2023-03-01T04:13:52.890Z,10.75
2023-03-01T04:16:21.658Z,10.55
2023-03-01T04:18:50.516Z,10.65
2023-03-01T04:21:19.421Z,10.45
2023-03-01T04:23:48.322Z,10.57
2023-03-01T04:26:16.953Z,10.27
2023-03-01T04:28:47.669Z,10.57
2023-03-01T04:31:20.109Z,10.75
2023-03-01T04:33:50.568Z,11.27
2023-03-01T04:36:21.200Z,10.48
2023-03-01T04:38:50.791Z,9.65
2023-03-01T04:41:22.906Z,9.90
2023-03-01T04:43:52.348Z,11.80
2023-03-01T04:46:30.166Z,9.23
2023-03-01T04:48:59.535Z,19.17
2023-03-01T04:51:28.122Z,17.98
2023-03-01T04:53:57.367Z,17.55
2023-03-01T04:56:26.060Z,18.08
2023-03-01T04:58:57.974Z,14.60
2023-03-01T05:01:26.806Z,13.25
2023-03-01T05:03:55.408Z,13.35
2023-03-01T05:06:24.409Z,15.80
2023-03-01T05:08:53.006Z,15.43
2023-03-01T05:11:22.045Z,14.40
2023-03-01T05:13:51.843Z,14.68
2023-03-01T05:16:21.891Z,14.80
2023-03-01T05:18:52.252Z,14.75
2023-03-01T05:21:21.066Z,15.30
2023-03-01T05:23:49.904Z,28.23
2023-03-01T05:26:39.417Z,15.07
2023-03-01T05:29:08.597Z,21.90
2023-03-01T05:31:37.120Z,17.08
2023-03-01T05:34:06.592Z,14.48
2023-03-01T05:36:36.600Z,15.68
2023-03-01T05:39:05.536Z,15.40
2023-03-01T05:41:34.056Z,16.15
2023-03-01T05:44:02.927Z,13.60
2023-03-01T05:46:31.736Z,12.95
2023-03-01T05:49:02.035Z,14.63
2023-03-01T05:51:31.264Z,36.33
2023-03-01T05:54:00.049Z,25.25
2023-03-01T05:56:28.913Z,27.55
2023-03-01T05:58:57.938Z,23.65
2023-03-01T06:01:26.511Z,11.68
2023-03-01T06:03:55.312Z,14.30
2023-03-01T06:06:23.910Z,12.38
2023-03-01T06:08:53.771Z,14.65
2023-03-01T06:11:23.504Z,9.90
2023-03-01T06:13:52.475Z,11.13
2023-03-01T06:16:21.121Z,46.85
2023-03-01T06:18:49.978Z,16.92
2023-03-01T06:21:18.578Z,27.63
2023-03-01T06:23:47.492Z,29.77
2023-03-01T06:26:16.110Z,30.25
2023-03-01T06:28:47.969Z,28.30
2023-03-01T06:31:17.155Z,51.83
2023-03-01T06:33:46.532Z,21.38
2023-03-01T06:36:15.361Z,8.32
2023-03-01T06:38:45.010Z,14.45
2023-03-01T06:41:13.769Z,8.75
2023-03-01T06:43:42.463Z,6.88
2023-03-01T06:46:11.196Z,6.20
2023-03-01T06:48:40.072Z,11.02
2023-03-01T06:51:08.907Z,6.50
2023-03-01T06:53:37.447Z,6.60
2023-03-01T06:56:06.512Z,6.20
2023-03-01T06:58:35.163Z,8.93
2023-03-01T07:01:08.636Z,10.25
2023-03-01T07:03:37.489Z,11.82
2023-03-01T07:06:06.237Z,13.73
2023-03-01T07:08:34.974Z,12.13
2023-03-01T07:11:05.477Z,12.60
2023-03-01T07:13:34.771Z,6.88
2023-03-01T07:16:03.425Z,7.13
2023-03-01T07:18:32.283Z,7.88
2023-03-01T07:21:05.557Z,6.50
2023-03-01T07:23:34.554Z,7.32
2023-03-01T07:26:03.477Z,7.63
2023-03-01T07:28:32.618Z,7.90
2023-03-01T07:31:05.577Z,7.22
2023-03-01T07:33:35.004Z,6.40
2023-03-01T07:36:05.495Z,7.07
2023-03-01T07:38:34.643Z,8.13
2023-03-01T07:41:05.231Z,7.18
2023-03-01T07:43:34.272Z,6.07
2023-03-01T07:46:04.197Z,6.07
2023-03-01T07:48:34.523Z,6.53
2023-03-01T07:51:06.251Z,7.22
2023-03-01T07:53:38.730Z,5.90
2023-03-01T07:58:41.949Z,7.18
2023-03-01T08:01:14.280Z,7.15
2023-03-01T08:03:44.253Z,7.30
2023-03-01T08:06:14.995Z,8.15
2023-03-01T08:08:44.149Z,8.35
2023-03-01T08:11:15.204Z,6.88
2023-03-01T08:13:45.089Z,7.35
2023-03-01T08:16:16.375Z,7.60
2023-03-01T08:18:45.789Z,5.65
2023-03-01T08:21:19.089Z,6.70
2023-03-01T08:23:48.249Z,6.65
2023-03-01T08:26:22.445Z,6.43
2023-03-01T08:28:52.194Z,5.50
2023-03-01T08:31:26.709Z,5.90
2023-03-01T08:33:58.195Z,6.43
2023-03-01T08:36:29.649Z,4.97
2023-03-01T08:38:59.200Z,5.82
2023-03-01T08:41:28.146Z,5.20
2023-03-01T08:44:00.599Z,5.40
2023-03-01T08:46:31.763Z,5.40
2023-03-01T08:49:01.261Z,4.05
2023-03-01T08:51:31.019Z,5.32
2023-03-01T08:53:59.939Z,5.45
2023-03-01T08:56:28.960Z,5.18
2023-03-01T08:58:57.918Z,4.80
2023-03-01T09:01:27.087Z,6.00
2023-03-01T09:03:56.300Z,5.28
2023-03-01T09:06:25.552Z,4.63
2023-03-01T09:08:54.621Z,4.97
2023-03-01T09:11:24.627Z,3.90
2023-03-01T09:13:53.841Z,4.72
2023-03-01T09:16:24.394Z,5.65
2023-03-01T09:18:55.072Z,4.95
2023-03-01T09:21:39.064Z,7.00
2023-03-01T09:24:15.650Z,7.03
2023-03-01T09:26:45.295Z,12.85
2023-03-01T09:29:14.204Z,25.40
2023-03-01T09:31:44.285Z,4.63
2023-03-01T09:34:13.172Z,5.25
2023-03-01T09:36:42.153Z,5.95
2023-03-01T09:39:13.104Z,6.85
2023-03-01T09:42:01.730Z,19.00
2023-03-01T09:44:54.033Z,10.02
2023-03-01T09:47:25.875Z,9.68
2023-03-01T09:50:07.095Z,6.90
2023-03-01T09:52:44.089Z,5.65
2023-03-01T09:55:19.951Z,14.52
2023-03-01T09:58:11.455Z,7.30
2023-03-01T10:00:50.058Z,8.90
2023-03-01T10:03:34.076Z,13.48
2023-03-01T10:06:06.891Z,6.07
2023-03-01T10:08:43.580Z,5.35
2023-03-01T10:11:22.634Z,5.40
2023-03-01T10:14:05.681Z,4.88
2023-03-01T10:17:09.679Z,5.80
2023-03-01T10:19:45.296Z,4.82
2023-03-01T10:22:20.115Z,4.85
2023-03-01T10:24:49.674Z,4.78
2023-03-01T10:27:46.450Z,4.93
2023-03-01T10:30:41.234Z,4.63
2023-03-01T10:33:21.866Z,5.38
2023-03-01T10:35:51.133Z,6.13
2023-03-01T10:38:24.617Z,6.13
2023-03-01T10:41:01.344Z,5.35
2023-03-01T10:43:50.365Z,4.95
2023-03-01T10:46:35.664Z,5.22
2023-03-01T10:49:16.563Z,5.57
2023-03-01T10:51:48.244Z,5.88
2023-03-01T10:54:35.285Z,6.13
2023-03-01T10:57:06.359Z,4.80
2023-03-01T10:59:37.600Z,5.97
2023-03-01T11:02:23.794Z,5.25
2023-03-01T11:05:00.606Z,4.28
2023-03-01T11:07:30.527Z,5.18
2023-03-01T11:09:59.391Z,5.05
2023-03-01T11:12:31.579Z,5.35
2023-03-01T11:15:00.802Z,4.45
2023-03-01T11:17:41.650Z,5.47
2023-03-01T11:20:16.938Z,4.63
2023-03-01T11:23:03.680Z,4.68
2023-03-01T11:25:39.418Z,5.00
2023-03-01T11:28:13.129Z,4.60
2023-03-01T11:31:07.731Z,6.28
2023-03-01T11:33:58.437Z,5.80
2023-03-01T11:36:33.404Z,5.40
2023-03-01T11:39:19.825Z,5.47
2023-03-01T11:41:54.973Z,7.53
2023-03-01T11:44:30.675Z,7.63
2023-03-01T11:46:59.603Z,6.60
2023-03-01T11:50:00.059Z,6.00
2023-03-01T11:52:29.025Z,5.80
2023-03-01T11:55:39.827Z,9.38
2023-03-01T11:58:43.617Z,7.43
2023-03-01T12:01:15.460Z,7.30
2023-03-01T12:04:12.589Z,7.25
2023-03-01T12:06:59.429Z,12.68
2023-03-01T12:09:33.932Z,9.70
2023-03-01T12:12:29.321Z,9.25
2023-03-01T12:15:31.828Z,10.20
2023-03-01T12:18:07.017Z,8.88
2023-03-01T12:20:45.602Z,11.10
2023-03-01T12:23:35.448Z,10.75
2023-03-01T12:26:09.770Z,10.48
2023-03-01T12:29:08.093Z,8.35
2023-03-01T12:31:59.014Z,9.77
2023-03-01T12:34:51.726Z,9.98
2023-03-01T12:37:39.443Z,8.57
2023-03-01T12:40:14.791Z,8.52
2023-03-01T12:42:53.870Z,7.90
2023-03-01T12:45:45.784Z,7.45
2023-03-01T12:48:37.796Z,10.37
2023-03-01T12:51:16.360Z,12.25
2023-03-01T12:53:55.688Z,15.77
2023-03-01T12:56:27.879Z,18.20
2023-03-01T12:59:18.160Z,19.58
2023-03-01T13:02:28.690Z,16.60
2023-03-01T13:05:20.750Z,19.20
2023-03-01T13:08:00.177Z,14.00
2023-03-01T13:11:03.892Z,13.50
2023-03-01T13:13:33.959Z,14.75
2023-03-01T13:16:46.948Z,15.45
2023-03-01T13:21:48.880Z,30.08
2023-03-01T13:24:41.965Z,26.40
2023-03-01T13:27:31.276Z,26.63
2023-03-01T13:30:05.433Z,37.88
2023-03-01T13:32:49.165Z,27.33
2023-03-01T13:35:23.256Z,23.13
2023-03-01T13:37:52.398Z,23.08
2023-03-01T13:40:21.198Z,22.92
2023-03-01T13:43:04.643Z,27.40
2023-03-01T13:45:42.420Z,25.77
2023-03-01T13:48:31.494Z,22.63
2023-03-01T13:51:13.147Z,27.30
2023-03-01T13:53:48.757Z,28.20
2023-03-01T13:56:27.289Z,26.83
2023-03-01T13:58:59.281Z,29.73
2023-03-01T14:01:30.575Z,21.92
2023-03-01T14:04:01.017Z,21.27
2023-03-01T14:06:33.635Z,21.73
2023-03-01T14:11:46.268Z,34.75
2023-03-01T14:14:50.555Z,26.23
2023-03-01T14:17:44.216Z,20.42
2023-03-01T14:20:28.166Z,19.10
2023-03-01T14:23:11.542Z,23.00
2023-03-01T14:25:48.344Z,21.95
2023-03-01T14:28:21.921Z,18.85
2023-03-01T14:30:53.810Z,15.95
2023-03-01T14:33:30.994Z,17.52
2023-03-01T14:36:11.917Z,16.20
2023-03-01T14:38:48.918Z,18.75
2023-03-01T14:41:22.278Z,19.42
2023-03-01T14:43:59.941Z,20.42
2023-03-01T14:46:34.279Z,21.23
2023-03-01T14:49:21.673Z,21.38
2023-03-01T14:52:10.121Z,22.30
2023-03-01T14:54:47.049Z,23.40
2023-03-01T14:57:34.212Z,22.83
2023-03-01T15:00:08.599Z,22.13
2023-03-01T15:02:39.578Z,21.17
2023-03-01T15:05:10.175Z,23.55
2023-03-01T15:07:43.667Z,25.25
2023-03-01T15:10:23.649Z,28.17
2023-03-01T15:12:54.750Z,24.15
2023-03-01T15:15:40.556Z,20.58
2023-03-01T15:18:37.121Z,20.58
2023-03-01T15:21:20.596Z,19.90
2023-03-01T15:23:57.517Z,22.35
2023-03-01T15:26:57.152Z,23.17
2023-03-01T15:29:35.363Z,36.22
2023-03-01T15:32:08.743Z,38.03
2023-03-01T15:34:40.062Z,34.83
2023-03-01T15:37:41.010Z,28.77
2023-03-01T15:40:35.000Z,28.10
2023-03-01T15:43:06.750Z,29.50
2023-03-01T15:45:36.195Z,26.83
2023-03-01T15:48:22.036Z,23.08
2023-03-01T15:51:00.631Z,19.13
2023-03-01T15:53:30.641Z,19.25
2023-03-01T15:55:59.380Z,21.60
2023-03-01T15:58:28.442Z,28.23
2023-03-01T16:01:02.324Z,33.10
2023-03-01T16:03:31.799Z,35.28
2023-03-01T16:06:00.525Z,30.02
2023-03-01T16:08:29.711Z,25.42
2023-03-01T16:10:58.422Z,23.95
2023-03-01T16:13:29.073Z,18.55
2023-03-01T16:15:58.422Z,13.88
2023-03-01T16:18:30.056Z,12.82
2023-03-01T16:20:59.052Z,12.73
2023-03-01T16:23:27.744Z,14.25
2023-03-01T16:26:00.837Z,15.45
2023-03-01T16:28:30.322Z,18.48
2023-03-01T16:30:59.229Z,20.38
2023-03-01T16:33:33.841Z,19.52
2023-03-01T16:36:09.115Z,22.88
2023-03-01T16:38:38.983Z,27.05
2023-03-01T16:41:07.801Z,25.67
2023-03-01T16:43:36.807Z,27.15
2023-03-01T16:46:16.059Z,28.50
2023-03-01T16:48:44.985Z,26.70
2023-03-01T16:51:14.635Z,22.23
2023-03-01T16:53:45.614Z,22.05
2023-03-01T16:56:16.357Z,18.83
2023-03-01T16:58:46.036Z,19.38
2023-03-01T17:01:18.328Z,17.92
2023-03-01T17:03:49.333Z,18.70
2023-03-01T17:06:22.241Z,18.45
2023-03-01T17:08:51.628Z,16.98
2023-03-01T17:11:22.241Z,16.83
2023-03-01T17:13:51.253Z,15.82
2023-03-01T17:16:21.915Z,16.85
2023-03-01T17:18:51.201Z,18.42
2023-03-01T17:21:20.436Z,16.15
2023-03-01T17:23:51.243Z,14.98
2023-03-01T17:26:20.160Z,14.27
2023-03-01T17:28:52.776Z,15.82
2023-03-01T17:31:22.548Z,15.73
2023-03-01T17:33:52.084Z,15.23
2023-03-01T17:36:21.108Z,17.30
2023-03-01T17:38:50.780Z,19.40
2023-03-01T17:41:20.373Z,22.33
2023-03-01T17:43:49.452Z,29.77
2023-03-01T17:46:18.251Z,33.40
2023-03-01T17:48:47.311Z,31.42
2023-03-01T17:51:16.086Z,33.35
2023-03-01T17:53:45.045Z,40.70
2023-03-01T17:56:13.795Z,49.90
2023-03-01T17:58:42.932Z,46.80
2023-03-01T18:01:17.831Z,45.45
2023-03-01T18:03:47.736Z,45.85
2023-03-01T18:06:19.889Z,41.35
2023-03-01T18:08:50.329Z,38.40
2023-03-01T18:11:20.635Z,36.42
2023-03-01T18:13:50.297Z,36.67
2023-03-01T18:16:21.555Z,41.85
2023-03-01T18:18:55.672Z,42.40
2023-03-01T18:21:25.418Z,36.92
2023-03-01T18:23:55.676Z,34.88
2023-03-01T18:26:25.889Z,32.38
2023-03-01T18:28:59.121Z,32.10
2023-03-01T18:31:28.558Z,30.60
2023-03-01T18:33:57.322Z,35.38
2023-03-01T18:36:27.727Z,33.67
2023-03-01T18:38:57.649Z,30.20
2023-03-01T18:41:29.030Z,30.35
2023-03-01T18:43:58.724Z,37.93
2023-03-01T18:46:27.697Z,53.75
2023-03-01T18:48:57.173Z,60.72
2023-03-01T18:51:29.176Z,54.42
2023-03-01T18:53:59.805Z,57.80
2023-03-01T18:56:31.684Z,53.72
2023-03-01T18:59:01.783Z,47.05
2023-03-01T19:01:33.007Z,36.42
2023-03-01T19:04:03.948Z,29.30
2023-03-01T19:06:35.818Z,29.70
2023-03-01T19:09:06.040Z,33.58
2023-03-01T19:11:36.428Z,37.28
2023-03-01T19:14:06.335Z,40.10
2023-03-01T19:16:36.780Z,40.42
2023-03-01T19:19:09.320Z,40.97
2023-03-01T19:24:08.215Z,46.15
2023-03-01T19:26:37.448Z,50.65
2023-03-01T19:29:07.191Z,47.03
2023-03-01T19:31:36.141Z,48.65
2023-03-01T19:34:11.445Z,58.03
2023-03-01T19:36:43.555Z,60.40
2023-03-01T19:39:14.431Z,58.00
2023-03-01T19:41:44.402Z,52.90
2023-03-01T19:44:14.016Z,57.97
2023-03-01T19:46:43.542Z,60.65
2023-03-01T19:49:12.739Z,63.17
2023-03-01T19:51:41.559Z,60.00
2023-03-01T19:54:12.658Z,56.47
2023-03-01T19:56:42.132Z,52.70
2023-03-01T19:59:10.949Z,52.72
2023-03-01T20:01:43.233Z,50.03
2023-03-01T20:04:13.816Z,51.63
2023-03-01T20:06:45.621Z,50.17
2023-03-01T20:09:21.742Z,46.35
2023-03-01T20:11:52.543Z,45.03
2023-03-01T20:14:23.857Z,46.65
2023-03-01T20:16:53.927Z,44.55
2023-03-01T20:19:22.885Z,44.17
2023-03-01T20:21:51.978Z,43.05
2023-03-01T20:24:20.952Z,42.72
2023-03-01T20:26:49.969Z,45.75
2023-03-01T20:29:18.755Z,45.08
2023-03-01T20:31:47.867Z,36.17
2023-03-01T20:34:16.946Z,35.03
2023-03-01T20:36:46.030Z,33.20
2023-03-01T20:39:15.217Z,34.17
2023-03-01T20:41:44.168Z,32.80
2023-03-01T20:44:13.108Z,34.65
2023-03-01T20:46:42.307Z,38.85
2023-03-01T20:49:11.886Z,35.10
2023-03-01T20:51:40.926Z,33.85
2023-03-01T20:54:11.516Z,37.25
2023-03-01T20:56:40.543Z,38.25
2023-03-01T20:59:10.725Z,40.78
2023-03-01T21:01:40.888Z,45.67
2023-03-01T21:04:10.821Z,51.75
2023-03-01T21:06:40.082Z,55.83
2023-03-01T21:09:09.063Z,57.90
2023-03-01T21:11:37.955Z,56.42
2023-03-01T21:14:06.807Z,57.22
2023-03-01T21:16:36.453Z,52.50
2023-03-01T21:19:09.009Z,52.72
2023-03-01T21:21:40.473Z,50.25
2023-03-01T21:24:11.411Z,44.90
2023-03-01T21:26:40.583Z,42.55
2023-03-01T21:29:09.399Z,39.60
2023-03-01T21:31:38.544Z,40.05
2023-03-01T21:34:08.207Z,42.83
2023-03-01T21:36:37.191Z,45.58
2023-03-01T21:39:07.340Z,52.08
2023-03-01T21:41:38.628Z,41.53
2023-03-01T21:44:08.913Z,39.95
2023-03-01T21:46:40.331Z,38.67
2023-03-01T21:49:09.708Z,39.05
2023-03-01T21:51:38.545Z,37.33
2023-03-01T21:54:08.344Z,69.07
2023-03-01T21:56:39.740Z,118.80
2023-03-01T21:59:13.527Z,71.90
2023-03-01T22:01:43.042Z,46.22
2023-03-01T22:04:14.012Z,46.90
2023-03-01T22:06:45.511Z,46.25
2023-03-01T22:09:20.849Z,51.08
2023-03-01T22:11:54.792Z,50.08
2023-03-01T22:14:23.949Z,49.50
2023-03-01T22:16:52.799Z,47.13
2023-03-01T22:19:22.777Z,46.95
2023-03-01T22:21:53.422Z,47.90
2023-03-01T22:24:25.178Z,53.33
2023-03-01T22:26:55.469Z,47.47
2023-03-01T22:29:30.314Z,45.55
2023-03-01T22:32:00.508Z,50.17
2023-03-01T22:34:30.122Z,47.83
2023-03-01T22:36:59.522Z,50.75
2023-03-01T22:39:28.523Z,53.40
2023-03-01T22:41:57.204Z,54.08
2023-03-01T22:44:26.675Z,58.08
2023-03-01T22:46:55.461Z,59.45
2023-03-01T22:49:24.549Z,60.78
2023-03-01T22:51:53.626Z,56.83
2023-03-01T22:54:22.944Z,58.63
2023-03-01T22:56:51.767Z,61.33
2023-03-01T22:59:25.861Z,64.00
2023-03-01T23:01:55.969Z,63.88
2023-03-01T23:04:25.289Z,60.95
2023-03-01T23:06:57.699Z,70.28
2023-03-01T23:09:26.564Z,67.90
2023-03-01T23:11:56.024Z,69.65
2023-03-01T23:14:26.318Z,70.35
2023-03-01T23:16:55.351Z,62.17
2023-03-01T23:19:24.688Z,64.30
2023-03-01T23:21:55.300Z,63.92
2023-03-01T23:24:32.376Z,63.75
2023-03-01T23:27:02.957Z,61.67
2023-03-01T23:29:32.743Z,54.25
2023-03-01T23:32:02.426Z,53.85
2023-03-01T23:34:31.601Z,60.92
2023-03-01T23:37:00.300Z,59.75
2023-03-01T23:39:30.824Z,60.97
2023-03-01T23:42:00.072Z,61.80
2023-03-01T23:44:28.845Z,66.45
2023-03-01T23:46:57.727Z,61.30
2023-03-01T23:49:26.537Z,63.83
2023-03-01T23:51:55.522Z,59.03
2023-03-01T23:54:25.638Z,55.78
2023-03-01T23:56:54.812Z,50.60
2023-03-01T23:59:25.508Z,39.17
